Le Roy, Iowa
Current Conditions -  °F | °C
As of 3:55 AM on Sunday 23 Nov 2014 (Local Time) from KCNC Reporting Station
Overcast Overcast  
Wind Chill: 52°   Ceiling: 500
Heat Index: 52°   Visibility: 7mi
Dew Point: 52°   Wind: 14mph
Humidity: 100%   Direction: 180°S
Pressure: 29.59"   Gusts: NA
Location:  40.8241°N, 93.5225°W
Report Text: KCNC 230955Z AUTO 18012KT 7SM OVC005 11/11 A2959 RMK AO2
Loading
Personal Weather Stations






























Interactive Weather Map New forecast layout! Learn more

10-Day Weather Forecast

Advertisements
Track Severe Weather on mobile